Impacts METAR Board INFO
IDs:

KATL - Atlanta/Hartsfield-J, GA, US

Updated at: 2300 UTC 21 Feb 2018
Potential Impact None Slight Moderate High
Time21/11Z 21/12Z 21/13Z 21/14Z 21/15Z 21/16Z 21/17Z 21/18Z 21/19Z 21/20Z 21/21Z 21/22Z 21/23Z
VIS 7 7 9 3 10 10 10 10 10 10 10
CIG 8 8 10 14 15 15 30 30 30 80 --
CoverOVCOVCOVCOVCOVCOVCBKNBKNBKNBKNSCT
FltCatIFRIFRMVFRMVFRMVFRMVFRMVFRMVFRMVFRVFRVFR
WX---DZ--BR--------------
WDir170170180170180180190170170180150
WSpd 10 9 7 6 6 7 11 8 8 9 8
WGst -- -- -- -- -- -- -- -- -- -- --
Raw hourly METARs


KATL 211252Z 17010KT 7SM OVC008 19/19 A3039 RMK AO2 SLP287 CIG 007V010 T01940194
KATL 211352Z 17009KT 7SM -DZ OVC008 20/19 A3040 RMK AO2 DZB48 SLP288 CIG 007V010 PCPN VRY LGT P0000 T02000194
KATL 211452Z 18007KT 9SM OVC010 21/19 A3042 RMK AO2 DZE01 SLP294 P0000 60000 T02060194 53010
KATL 211603Z 17006KT 3SM BR SCT007 BKN014 OVC020 21/20 A3043 RMK AO2 SFC VIS 6 RAE03 P0000 T02060200
KATL 211701Z 18006KT 10SM FEW007 BKN015 OVC020 22/19 A3042 RMK AO2 T02170194
KATL 211752Z 18007KT 10SM FEW010 BKN015 OVC020 22/19 A3040 RMK AO2 SLP288 60000 T02170194 10217 20194 58005
KATL 211852Z 19011KT 10SM FEW015 SCT020 BKN030 23/19 A3037 RMK AO2 SLP279 T02280194
KATL 211952Z 17008KT 10SM BKN030 24/19 A3035 RMK AO2 SLP272 MDT CU ALQDS T02390189
KATL 212052Z 17008KT 10SM BKN030TCU BKN040 24/19 A3034 RMK AO2 SLP268 TCU S-SW-W-NW-N MDT CU NE-SE T02390189 56020
KATL 212152Z 18009KT 10SM FEW025 SCT040 BKN080 25/18 A3034 RMK AO2 SLP267 TCU DSNT NE-SE T02500183
KATL 212252Z 15008KT 10SM FEW035 SCT080 24/18 A3035 RMK AO2 SLP269 T02440183